createdAt,value
2018-08-06T00:02:18.070Z,25.82
2018-08-06T00:04:45.749Z,25.80
2018-08-06T00:07:13.933Z,25.82
2018-08-06T00:09:41.955Z,25.82
2018-08-06T00:12:09.584Z,25.80
2018-08-06T00:14:37.577Z,25.82
2018-08-06T00:17:05.359Z,25.79
2018-08-06T00:19:33.146Z,25.78
2018-08-06T00:22:00.869Z,25.79
2018-08-06T00:24:29.048Z,25.78
2018-08-06T00:26:56.662Z,25.80
2018-08-06T00:29:24.553Z,25.79
2018-08-06T00:31:52.637Z,25.79
2018-08-06T00:34:20.592Z,25.79
2018-08-06T00:36:48.209Z,25.78
2018-08-06T00:39:16.232Z,25.78
2018-08-06T00:41:43.857Z,25.76
2018-08-06T00:44:11.487Z,25.78
2018-08-06T00:46:39.463Z,25.75
2018-08-06T00:49:07.432Z,25.78
2018-08-06T00:51:35.134Z,25.78
2018-08-06T00:54:03.162Z,25.75
2018-08-06T00:56:31.033Z,25.75
2018-08-06T00:58:58.854Z,25.75
2018-08-06T01:01:26.511Z,25.74
2018-08-06T01:03:54.172Z,25.75
2018-08-06T01:06:21.853Z,25.75
2018-08-06T01:08:50.043Z,25.72
2018-08-06T01:11:17.698Z,25.73
2018-08-06T01:13:45.361Z,25.72
2018-08-06T01:16:13.938Z,25.73
2018-08-06T01:18:41.899Z,25.72
2018-08-06T01:21:09.546Z,25.71
2018-08-06T01:23:37.403Z,25.72
2018-08-06T01:26:05.438Z,25.71
2018-08-06T01:28:33.321Z,25.71
2018-08-06T01:31:00.999Z,25.71
2018-08-06T01:33:29.285Z,25.71
2018-08-06T01:35:57.230Z,25.70
2018-08-06T01:38:25.459Z,25.69
2018-08-06T01:40:53.102Z,25.69
2018-08-06T01:43:21.013Z,25.69
2018-08-06T01:45:49.031Z,25.68
2018-08-06T01:48:16.725Z,25.67
2018-08-06T01:50:44.349Z,25.64
2018-08-06T01:53:12.611Z,25.63
2018-08-06T01:55:40.543Z,25.62
2018-08-06T01:58:08.164Z,25.62
2018-08-06T02:00:35.924Z,25.61
2018-08-06T02:03:03.575Z,25.61
2018-08-06T02:05:31.238Z,25.61
2018-08-06T02:07:59.188Z,25.61
2018-08-06T02:10:26.897Z,25.60
2018-08-06T02:12:54.593Z,25.58
2018-08-06T02:15:22.273Z,25.58
2018-08-06T02:17:49.945Z,25.58
2018-08-06T02:20:17.809Z,25.57
2018-08-06T02:22:47.035Z,25.57
2018-08-06T02:25:15.002Z,25.58
2018-08-06T02:27:43.006Z,25.49
2018-08-06T02:30:12.328Z,25.56
2018-08-06T02:32:40.167Z,25.55
2018-08-06T02:35:10.466Z,25.55
2018-08-06T02:37:38.214Z,25.55
2018-08-06T02:40:07.743Z,25.54
2018-08-06T02:42:35.800Z,25.53
2018-08-06T02:45:04.250Z,25.52
2018-08-06T02:47:32.218Z,25.53
2018-08-06T02:50:00.230Z,25.52
2018-08-06T02:52:27.884Z,25.51
2018-08-06T02:54:55.489Z,25.49
2018-08-06T02:57:23.191Z,25.49
2018-08-06T02:59:50.809Z,25.49
2018-08-06T03:02:18.429Z,25.49
2018-08-06T03:04:46.668Z,25.47
2018-08-06T03:07:14.356Z,25.47
2018-08-06T03:09:42.091Z,25.48
2018-08-06T03:12:09.996Z,25.46
2018-08-06T03:14:37.880Z,25.46
2018-08-06T03:17:06.413Z,25.45
2018-08-06T03:19:34.035Z,25.44
2018-08-06T03:22:01.736Z,25.00
2018-08-06T03:24:29.753Z,25.44
2018-08-06T03:26:57.881Z,25.43
2018-08-06T03:29:25.780Z,25.44
2018-08-06T03:31:53.436Z,25.43
2018-08-06T03:34:21.052Z,25.42
2018-08-06T03:36:48.704Z,25.42
2018-08-06T03:39:16.309Z,25.41
2018-08-06T03:41:44.309Z,25.41
2018-08-06T03:44:11.966Z,25.40
2018-08-06T03:46:39.640Z,25.39
2018-08-06T03:49:07.546Z,25.40
2018-08-06T03:51:35.188Z,25.38
2018-08-06T03:54:02.880Z,25.38
2018-08-06T03:56:30.949Z,25.39
2018-08-06T03:58:58.810Z,25.37
2018-08-06T04:01:26.472Z,25.38
2018-08-06T04:03:54.163Z,25.39
2018-08-06T04:06:21.833Z,25.39
2018-08-06T04:08:49.504Z,25.40
2018-08-06T04:11:17.149Z,25.41
2018-08-06T04:13:45.274Z,25.41
2018-08-06T04:16:13.326Z,25.41
2018-08-06T04:18:41.006Z,25.41
2018-08-06T04:21:08.633Z,25.43
2018-08-06T04:23:36.594Z,25.43
2018-08-06T04:26:04.376Z,25.42
2018-08-06T04:28:32.309Z,25.42
2018-08-06T04:30:59.972Z,25.43
2018-08-06T04:33:27.857Z,25.44
2018-08-06T04:35:56.052Z,25.44
2018-08-06T04:38:23.995Z,25.45
2018-08-06T04:40:52.066Z,25.46
2018-08-06T04:43:20.925Z,25.47
2018-08-06T04:45:48.540Z,25.46
2018-08-06T04:48:16.248Z,25.46
2018-08-06T04:50:44.220Z,25.46
2018-08-06T04:53:11.930Z,25.46
2018-08-06T04:55:39.890Z,25.47
2018-08-06T04:58:07.856Z,25.46
2018-08-06T05:00:35.506Z,25.47
2018-08-06T05:03:03.138Z,25.47
2018-08-06T05:05:31.140Z,25.48
2018-08-06T05:07:58.832Z,25.48
2018-08-06T05:10:26.718Z,25.48
2018-08-06T05:12:54.760Z,25.48
2018-08-06T05:15:22.997Z,25.50
2018-08-06T05:17:50.863Z,25.50
2018-08-06T05:20:18.583Z,25.50
2018-08-06T05:22:46.538Z,25.51
2018-08-06T05:25:14.494Z,25.50
2018-08-06T05:27:42.273Z,25.52
2018-08-06T05:30:11.592Z,25.52
2018-08-06T05:32:39.482Z,25.52
2018-08-06T05:35:07.701Z,25.54
2018-08-06T05:37:35.361Z,25.53
2018-08-06T05:40:03.386Z,25.54
2018-08-06T05:42:31.059Z,25.55
2018-08-06T05:44:58.993Z,25.56
2018-08-06T05:47:26.915Z,25.57
2018-08-06T05:49:54.793Z,25.58
2018-08-06T05:52:22.492Z,25.58
2018-08-06T05:54:50.628Z,25.59
2018-08-06T05:57:18.236Z,25.60
2018-08-06T05:59:45.876Z,25.63
2018-08-06T06:02:14.086Z,25.64
2018-08-06T06:04:41.781Z,25.64
2018-08-06T06:07:09.396Z,25.66
2018-08-06T06:09:37.891Z,25.67
2018-08-06T06:12:05.549Z,25.68
2018-08-06T06:14:33.460Z,25.69
2018-08-06T06:17:01.200Z,25.68
2018-08-06T06:19:29.071Z,25.71
2018-08-06T06:21:56.733Z,25.73
2018-08-06T06:24:24.446Z,25.75
2018-08-06T06:26:52.105Z,25.75
2018-08-06T06:29:20.075Z,25.75
2018-08-06T06:31:48.006Z,25.76
2018-08-06T06:34:15.633Z,25.78
2018-08-06T06:36:43.522Z,25.78
2018-08-06T06:39:12.494Z,25.79
2018-08-06T06:41:40.614Z,25.81
2018-08-06T06:44:08.778Z,25.83
2018-08-06T06:46:36.858Z,25.83
2018-08-06T06:49:04.814Z,25.84
2018-08-06T06:51:32.421Z,25.84
2018-08-06T06:54:00.110Z,25.87
2018-08-06T06:56:27.746Z,25.88
2018-08-06T06:58:55.793Z,25.89
2018-08-06T07:01:23.502Z,25.91
2018-08-06T07:03:51.185Z,25.92
2018-08-06T07:06:18.865Z,25.93
2018-08-06T07:08:46.537Z,25.94
2018-08-06T07:11:14.184Z,25.95
2018-08-06T07:13:42.106Z,25.97
2018-08-06T07:16:09.805Z,26.00
2018-08-06T07:18:37.921Z,26.01
2018-08-06T07:21:06.072Z,26.01
2018-08-06T07:23:33.990Z,26.03
2018-08-06T07:26:01.751Z,26.04
2018-08-06T07:28:29.467Z,26.07
2018-08-06T07:30:57.137Z,26.07
2018-08-06T07:33:24.806Z,26.07
2018-08-06T07:35:52.810Z,26.09
2018-08-06T07:38:20.862Z,26.09
2018-08-06T07:40:48.844Z,26.12
2018-08-06T07:43:16.658Z,26.12
2018-08-06T07:45:44.221Z,26.14
2018-08-06T07:48:12.131Z,26.15
2018-08-06T07:50:39.762Z,26.16
2018-08-06T07:53:07.728Z,26.17
2018-08-06T07:55:35.718Z,26.18
2018-08-06T07:58:03.324Z,26.20
2018-08-06T08:00:31.030Z,26.20
2018-08-06T08:02:58.658Z,26.22
2018-08-06T08:05:26.655Z,26.23
2018-08-06T08:07:54.335Z,26.24
2018-08-06T08:10:23.243Z,26.25
2018-08-06T08:12:51.120Z,26.26
2018-08-06T08:15:24.508Z,26.27
2018-08-06T08:17:52.314Z,26.28
2018-08-06T08:20:20.126Z,26.29
2018-08-06T08:22:47.844Z,26.30
2018-08-06T08:25:17.105Z,26.31
2018-08-06T08:27:44.897Z,26.31
2018-08-06T08:30:13.762Z,26.33
2018-08-06T08:32:41.408Z,26.34
2018-08-06T08:35:09.658Z,26.36
2018-08-06T08:37:37.334Z,26.37
2018-08-06T08:40:08.686Z,26.39
2018-08-06T08:42:36.672Z,26.39
2018-08-06T08:45:06.179Z,26.40
2018-08-06T08:47:34.181Z,26.42
2018-08-06T08:50:01.809Z,26.43
2018-08-06T08:52:29.561Z,26.44
2018-08-06T08:54:57.169Z,26.44
2018-08-06T08:57:24.876Z,26.46
2018-08-06T08:59:52.861Z,26.47
2018-08-06T09:02:20.797Z,26.49
2018-08-06T09:04:49.037Z,26.50
2018-08-06T09:07:16.685Z,26.51
2018-08-06T09:09:44.348Z,26.54
2018-08-06T09:12:11.978Z,26.54
2018-08-06T09:14:39.961Z,26.55
2018-08-06T09:17:07.669Z,26.57
2018-08-06T09:19:35.289Z,26.58
2018-08-06T09:22:03.154Z,26.59
2018-08-06T09:24:30.776Z,26.60
2018-08-06T09:26:58.477Z,26.61
2018-08-06T09:29:26.191Z,26.63
2018-08-06T09:31:53.801Z,26.63
2018-08-06T09:34:21.760Z,26.65
2018-08-06T09:36:49.693Z,26.67
2018-08-06T09:39:18.017Z,26.68
2018-08-06T09:41:46.213Z,26.71
2018-08-06T09:44:14.431Z,26.72
2018-08-06T09:46:42.220Z,26.73
2018-08-06T09:49:09.953Z,26.73
2018-08-06T09:51:37.987Z,26.75
2018-08-06T09:54:05.934Z,26.76
2018-08-06T09:56:33.613Z,26.78
2018-08-06T09:59:01.285Z,26.80
2018-08-06T10:01:34.501Z,26.81
2018-08-06T10:04:02.229Z,26.84
2018-08-06T10:06:30.166Z,26.85
2018-08-06T10:08:57.551Z,26.87
2018-08-06T10:11:25.745Z,26.87
2018-08-06T10:13:53.597Z,26.90
2018-08-06T10:16:21.501Z,26.90
2018-08-06T10:18:49.337Z,26.90
2018-08-06T10:21:17.178Z,26.93
2018-08-06T10:23:45.120Z,26.94
2018-08-06T10:26:12.802Z,26.97
2018-08-06T10:28:40.693Z,26.97
2018-08-06T10:31:08.355Z,27.00
2018-08-06T10:33:36.027Z,27.01
2018-08-06T10:36:03.686Z,27.03
2018-08-06T10:38:31.554Z,27.04
2018-08-06T10:40:59.313Z,27.07
2018-08-06T10:43:27.009Z,27.09
2018-08-06T10:45:54.653Z,27.11
2018-08-06T10:48:22.710Z,27.12
2018-08-06T10:50:50.558Z,27.15
2018-08-06T10:53:18.198Z,27.16
2018-08-06T10:55:45.886Z,27.18
2018-08-06T10:58:13.575Z,27.20
2018-08-06T11:00:41.521Z,27.22
2018-08-06T11:03:09.769Z,27.22
2018-08-06T11:05:38.027Z,27.24
2018-08-06T11:08:05.689Z,27.26
2018-08-06T11:10:33.348Z,27.29
2018-08-06T11:13:01.023Z,27.31
2018-08-06T11:15:28.673Z,27.32
2018-08-06T11:17:56.377Z,27.35
2018-08-06T11:20:24.423Z,27.35
2018-08-06T11:22:52.676Z,27.38
2018-08-06T11:25:21.992Z,27.41
2018-08-06T11:27:50.167Z,27.42
2018-08-06T11:30:19.402Z,27.45
2018-08-06T11:32:47.606Z,27.47
2018-08-06T11:35:15.630Z,27.50
2018-08-06T11:37:43.380Z,27.53
2018-08-06T11:40:12.428Z,27.56
2018-08-06T11:42:41.171Z,27.59
2018-08-06T11:45:10.838Z,27.61
2018-08-06T11:47:38.893Z,27.64
2018-08-06T11:50:06.977Z,27.68
2018-08-06T11:52:34.595Z,27.70
2018-08-06T11:55:02.264Z,27.73
2018-08-06T11:57:30.316Z,27.75
2018-08-06T11:59:58.201Z,27.77
2018-08-06T12:02:26.378Z,27.79
2018-08-06T12:04:54.039Z,27.82
2018-08-06T12:07:21.783Z,27.84
2018-08-06T12:09:49.885Z,27.87
2018-08-06T12:12:18.123Z,27.90
2018-08-06T12:14:45.741Z,27.91
2018-08-06T12:17:13.475Z,27.95
2018-08-06T12:19:42.136Z,27.97
2018-08-06T12:22:09.802Z,27.99
2018-08-06T12:24:37.527Z,28.01
2018-08-06T12:27:05.561Z,28.05
2018-08-06T12:29:33.431Z,28.08
2018-08-06T12:32:01.092Z,28.09
2018-08-06T12:34:28.770Z,28.13
2018-08-06T12:36:56.758Z,28.15
2018-08-06T12:39:24.449Z,28.17
2018-08-06T12:41:52.115Z,28.19
2018-08-06T12:44:19.781Z,28.23
2018-08-06T12:46:47.690Z,28.27
2018-08-06T12:49:15.815Z,28.28
2018-08-06T12:51:44.169Z,28.31
2018-08-06T12:54:12.493Z,28.34
2018-08-06T12:56:40.706Z,28.37
2018-08-06T12:59:08.403Z,28.39
2018-08-06T13:01:36.053Z,28.43
2018-08-06T13:04:03.713Z,28.44
2018-08-06T13:06:31.382Z,28.47
2018-08-06T13:08:59.117Z,28.50
2018-08-06T13:11:27.145Z,28.54
2018-08-06T13:13:54.782Z,28.57
2018-08-06T13:16:22.706Z,28.59
2018-08-06T13:18:50.409Z,28.64
2018-08-06T13:21:18.314Z,28.65
2018-08-06T13:23:45.961Z,28.69
2018-08-06T13:26:13.856Z,28.71
2018-08-06T13:28:41.989Z,27.96
2018-08-06T13:31:09.644Z,28.77
2018-08-06T13:33:37.626Z,28.80
2018-08-06T13:36:05.325Z,28.82
2018-08-06T13:38:33.038Z,28.85
2018-08-06T13:41:00.933Z,28.89
2018-08-06T13:43:28.638Z,28.91
2018-08-06T13:45:56.606Z,28.94
2018-08-06T13:48:24.342Z,28.98
2018-08-06T13:50:51.974Z,29.02
2018-08-06T13:53:19.899Z,29.06
2018-08-06T13:55:47.958Z,29.11
2018-08-06T13:58:15.639Z,29.15
2018-08-06T14:00:43.264Z,29.20
2018-08-06T14:03:10.964Z,29.24
2018-08-06T14:05:38.598Z,29.21
2018-08-06T14:08:06.278Z,29.33
2018-08-06T14:10:34.414Z,29.39
2018-08-06T14:13:02.342Z,29.44
2018-08-06T14:15:30.193Z,29.49
2018-08-06T14:17:57.835Z,29.59
2018-08-06T14:20:25.836Z,29.69
2018-08-06T14:22:53.523Z,29.81
2018-08-06T14:25:21.546Z,29.99
2018-08-06T14:27:49.444Z,30.25
2018-08-06T14:30:17.635Z,30.64
2018-08-06T14:32:45.597Z,31.77
2018-08-06T14:35:14.294Z,32.96
2018-08-06T14:37:41.942Z,33.72
2018-08-06T14:40:14.081Z,34.18
2018-08-06T14:42:42.078Z,34.47
2018-08-06T14:45:10.350Z,34.60
2018-08-06T14:47:38.003Z,34.47
2018-08-06T14:50:06.833Z,34.64
2018-08-06T14:52:34.544Z,34.62
2018-08-06T14:55:02.229Z,34.21
2018-08-06T14:57:36.913Z,33.57
2018-08-06T15:00:11.321Z,33.17
2018-08-06T15:02:39.444Z,32.75
2018-08-06T15:05:07.280Z,32.49
2018-08-06T15:07:35.394Z,32.39
2018-08-06T15:10:03.252Z,33.70
2018-08-06T15:12:30.917Z,33.42
2018-08-06T15:14:58.857Z,33.16
2018-08-06T15:17:27.103Z,32.53
2018-08-06T15:19:55.166Z,31.86
2018-08-06T15:22:22.856Z,31.45
2018-08-06T15:24:50.533Z,31.27
2018-08-06T15:27:18.555Z,31.32
2018-08-06T15:29:46.266Z,31.31
2018-08-06T15:32:14.229Z,31.19
2018-08-06T15:34:41.928Z,31.14
2018-08-06T15:37:09.621Z,31.24
2018-08-06T15:39:37.511Z,31.13
2018-08-06T15:42:05.669Z,31.09
2018-08-06T15:44:33.330Z,31.15
2018-08-06T15:47:00.993Z,31.08
2018-08-06T15:49:28.732Z,30.91
2018-08-06T15:51:56.671Z,30.75
2018-08-06T15:54:24.468Z,30.64
2018-08-06T15:56:52.786Z,30.56
2018-08-06T15:59:20.702Z,30.50
2018-08-06T16:01:48.386Z,30.47
2018-08-06T16:04:16.102Z,30.48
2018-08-06T16:06:43.753Z,30.49
2018-08-06T16:09:11.796Z,30.51
2018-08-06T16:11:39.568Z,30.53
2018-08-06T16:14:07.250Z,30.51
2018-08-06T16:16:34.926Z,30.45
2018-08-06T16:19:02.575Z,30.40
2018-08-06T16:21:30.243Z,30.33
2018-08-06T16:23:57.887Z,30.28
2018-08-06T16:26:25.879Z,30.24
2018-08-06T16:28:53.531Z,30.19
2018-08-06T16:31:21.374Z,30.15
2018-08-06T16:33:49.060Z,30.14
2018-08-06T16:36:16.942Z,30.15
2018-08-06T16:38:44.826Z,30.12
2018-08-06T16:41:12.482Z,30.13
2018-08-06T16:43:40.291Z,30.13
2018-08-06T16:46:07.920Z,30.13
2018-08-06T16:48:35.890Z,30.13
2018-08-06T16:51:03.887Z,30.13
2018-08-06T16:53:32.141Z,30.13
2018-08-06T16:56:00.074Z,30.13
2018-08-06T16:58:27.747Z,30.15
2018-08-06T17:00:55.730Z,30.17
2018-08-06T17:03:23.569Z,30.20
2018-08-06T17:05:51.220Z,30.22
2018-08-06T17:08:18.900Z,30.18
2018-08-06T17:10:46.829Z,30.13
2018-08-06T17:13:14.757Z,30.07
2018-08-06T17:15:42.420Z,30.02
2018-08-06T17:18:10.333Z,29.97
2018-08-06T17:20:38.004Z,29.94
2018-08-06T17:23:05.738Z,29.92
2018-08-06T17:25:33.393Z,29.90
2018-08-06T17:28:01.325Z,29.88
2018-08-06T17:30:28.997Z,29.89
2018-08-06T17:32:57.025Z,29.93
2018-08-06T17:35:24.698Z,29.90
2018-08-06T17:37:52.345Z,29.92
2018-08-06T17:40:20.040Z,29.90
2018-08-06T17:42:47.867Z,29.90
2018-08-06T17:45:18.716Z,29.88
2018-08-06T17:47:47.217Z,29.93
2018-08-06T17:50:17.414Z,30.04
2018-08-06T17:52:46.311Z,30.19
2018-08-06T17:55:14.569Z,30.32
2018-08-06T17:57:42.925Z,30.36
2018-08-06T18:00:11.624Z,30.29
2018-08-06T18:02:39.596Z,30.20
2018-08-06T18:05:09.398Z,30.12
2018-08-06T18:07:37.157Z,30.05
2018-08-06T18:10:06.419Z,30.00
2018-08-06T18:12:34.113Z,30.00
2018-08-06T18:15:02.100Z,30.01
2018-08-06T18:17:29.961Z,29.99
2018-08-06T18:19:57.864Z,29.98
2018-08-06T18:22:25.876Z,29.97
2018-08-06T18:24:54.093Z,29.94
2018-08-06T18:27:22.152Z,29.88
2018-08-06T18:29:49.878Z,29.80
2018-08-06T18:32:17.502Z,29.76
2018-08-06T18:34:45.385Z,29.73
2018-08-06T18:37:13.747Z,29.72
2018-08-06T18:39:41.739Z,29.65
2018-08-06T18:42:09.381Z,29.60
2018-08-06T18:44:37.071Z,29.54
2018-08-06T18:47:05.185Z,29.48
2018-08-06T18:49:33.206Z,29.43
2018-08-06T18:52:01.461Z,29.39
2018-08-06T18:54:29.166Z,29.35
2018-08-06T18:56:56.824Z,29.30
2018-08-06T18:59:24.576Z,29.25
2018-08-06T19:01:52.531Z,29.21
2018-08-06T19:04:20.242Z,29.15
2018-08-06T19:06:48.471Z,29.12
2018-08-06T19:09:16.847Z,29.08
2018-08-06T19:11:45.571Z,29.04
2018-08-06T19:14:21.073Z,29.02
2018-08-06T19:16:49.944Z,28.99
2018-08-06T19:19:21.246Z,28.96
2018-08-06T19:21:49.255Z,28.93
2018-08-06T19:24:23.143Z,28.91
2018-08-06T19:26:51.212Z,28.88
2018-08-06T19:29:18.892Z,28.87
2018-08-06T19:31:46.757Z,28.84
2018-08-06T19:34:14.469Z,28.81
2018-08-06T19:36:47.885Z,28.80
2018-08-06T19:39:16.150Z,28.77
2018-08-06T19:41:43.926Z,28.74
2018-08-06T19:44:11.590Z,28.71
2018-08-06T19:46:39.265Z,28.64
2018-08-06T19:49:12.885Z,28.53
2018-08-06T19:51:40.870Z,28.40
2018-08-06T19:54:09.466Z,28.28
2018-08-06T19:56:37.196Z,28.23
2018-08-06T19:59:05.628Z,28.13
2018-08-06T20:01:34.085Z,28.02
2018-08-06T20:04:01.782Z,27.96
2018-08-06T20:06:29.423Z,27.93
2018-08-06T20:08:57.158Z,27.89
2018-08-06T20:11:24.801Z,27.87
2018-08-06T20:13:52.658Z,27.81
2018-08-06T20:16:20.272Z,27.75
2018-08-06T20:18:48.900Z,27.71
2018-08-06T20:21:16.890Z,27.66
2018-08-06T20:23:45.206Z,27.38
2018-08-06T20:26:13.070Z,27.58
2018-08-06T20:28:41.189Z,27.58
2018-08-06T20:31:09.395Z,27.52
2018-08-06T20:33:37.045Z,27.46
2018-08-06T20:36:05.594Z,27.42
2018-08-06T20:38:33.523Z,27.36
2018-08-06T20:41:01.163Z,27.30
2018-08-06T20:43:29.144Z,27.25
2018-08-06T20:45:56.810Z,27.15
2018-08-06T20:48:24.624Z,27.13
2018-08-06T20:50:53.361Z,27.11
2018-08-06T20:53:21.189Z,27.15
2018-08-06T20:55:49.369Z,27.10
2018-08-06T20:58:17.269Z,27.05
2018-08-06T21:00:45.568Z,27.04
2018-08-06T21:03:13.248Z,27.02
2018-08-06T21:05:41.304Z,27.03
2018-08-06T21:08:09.539Z,27.02
2018-08-06T21:10:37.384Z,27.00
2018-08-06T21:13:05.440Z,26.97
2018-08-06T21:15:33.273Z,26.97
2018-08-06T21:18:01.319Z,26.92
2018-08-06T21:20:29.452Z,26.87
2018-08-06T21:22:57.602Z,26.86
2018-08-06T21:25:25.981Z,26.85
2018-08-06T21:27:54.183Z,26.87
2018-08-06T21:30:22.223Z,26.93
2018-08-06T21:32:55.817Z,26.88
2018-08-06T21:35:25.098Z,26.86
2018-08-06T21:37:54.157Z,26.87
2018-08-06T21:40:22.802Z,26.86
2018-08-06T21:42:51.167Z,26.88
2018-08-06T21:45:19.728Z,26.84
2018-08-06T21:47:47.843Z,26.81
2018-08-06T21:50:15.858Z,26.78
2018-08-06T21:52:44.190Z,26.76
2018-08-06T21:55:12.276Z,26.74
2018-08-06T21:57:39.933Z,26.71
2018-08-06T22:00:12.237Z,26.70
2018-08-06T22:02:40.454Z,26.69
2018-08-06T22:05:08.537Z,26.57
2018-08-06T22:07:36.672Z,26.51
2018-08-06T22:10:04.876Z,26.44
2018-08-06T22:12:32.513Z,26.22
2018-08-06T22:15:00.446Z,26.48
2018-08-06T22:17:28.093Z,26.47
2018-08-06T22:19:56.031Z,26.37
2018-08-06T22:22:23.750Z,26.32
2018-08-06T22:24:51.408Z,26.37
2018-08-06T22:27:19.047Z,26.35
2018-08-06T22:29:47.033Z,26.31
2018-08-06T22:32:15.051Z,26.36
2018-08-06T22:34:42.729Z,26.43
2018-08-06T22:37:10.389Z,26.45
2018-08-06T22:39:38.677Z,26.47
2018-08-06T22:42:06.305Z,26.45
2018-08-06T22:44:34.552Z,26.45
2018-08-06T22:47:02.214Z,26.41
2018-08-06T22:49:29.858Z,26.43
2018-08-06T22:51:57.508Z,26.41
2018-08-06T22:54:25.143Z,26.35
2018-08-06T22:56:52.824Z,26.37
2018-08-06T22:59:20.488Z,26.35
2018-08-06T23:01:48.117Z,26.35
2018-08-06T23:04:15.766Z,26.30
2018-08-06T23:06:43.787Z,26.26
2018-08-06T23:09:12.615Z,26.21
2018-08-06T23:11:41.276Z,26.23
2018-08-06T23:14:09.094Z,26.23
2018-08-06T23:16:37.112Z,26.22
2018-08-06T23:19:05.086Z,26.23
2018-08-06T23:21:33.325Z,26.32
2018-08-06T23:24:01.775Z,26.26
2018-08-06T23:26:29.889Z,26.26
2018-08-06T23:28:57.528Z,26.28
2018-08-06T23:31:25.211Z,26.24
2018-08-06T23:33:53.284Z,26.17
2018-08-06T23:36:20.908Z,26.18
2018-08-06T23:38:48.571Z,26.20
2018-08-06T23:41:16.753Z,26.24
2018-08-06T23:43:44.415Z,26.24
2018-08-06T23:46:12.069Z,26.26
2018-08-06T23:48:39.752Z,26.19
2018-08-06T23:51:07.996Z,26.18
2018-08-06T23:53:35.630Z,26.17
2018-08-06T23:56:03.606Z,26.18
2018-08-06T23:58:31.672Z,26.08
